РПИ Калининград

РПИ Калининград

Калининградский РПИ является структурным подразделением VATRUS.

В зону ответственности района в сети VATSIM входит воздушное пространство над территориями Калининградской области и частью Балтийского моря. Особенностью центра является его географическое положение. Воздушное пространство района ответственности центра граничит с РПИ центров ОВД Польши, Литвы и Швеции.

Руководитель РПИ

Alexey Zimin

Инструкторы РПИ
Входит в состав
ЗЦ Санкт-Петербург

Диспетчеры РПИ

Диспетчер Рейтинг Допуски *
Alexey Zimin Instructor UMKK_CTR
Nikita Assorov Instructor UMKK_CTR

Аэропорты РПИ

ICAO Город Название Погода
UMKK Калининград Калининград UMKK 161830Z 23008MPS 3500 -DZ BR OVC006 02/01 Q1007 R24/290095 NOSIG RMK QBB180 OBST OBSC QFE754/1006